createdAt,value
2023-03-20T00:00:42.971Z,1013.01
2023-03-20T00:01:42.956Z,1013.02
2023-03-20T00:02:42.922Z,1013.05
2023-03-20T00:03:42.956Z,1013.01
2023-03-20T00:04:42.882Z,1013.03
2023-03-20T00:05:42.853Z,1012.99
2023-03-20T00:06:42.829Z,1012.99
2023-03-20T00:07:42.803Z,1012.99
2023-03-20T00:08:42.800Z,1012.99
2023-03-20T00:09:42.753Z,1013.01
2023-03-20T00:10:42.726Z,1013.03
2023-03-20T00:11:42.710Z,1013.06
2023-03-20T00:12:42.677Z,1013.06
2023-03-20T00:13:42.660Z,1013.03
2023-03-20T00:14:42.628Z,1013.04
2023-03-20T00:15:42.656Z,1013.07
2023-03-20T00:16:42.582Z,1013.02
2023-03-20T00:17:42.572Z,1013.07
2023-03-20T00:18:42.536Z,1013.07
2023-03-20T00:19:42.514Z,1013.09
2023-03-20T00:20:42.484Z,1013.08
2023-03-20T00:21:42.466Z,1013.07
2023-03-20T00:22:42.436Z,1013.09
2023-03-20T00:23:42.426Z,1013.04
2023-03-20T00:24:42.405Z,1013.05
2023-03-20T00:25:42.373Z,1012.98
2023-03-20T00:26:42.332Z,1013.00
2023-03-20T00:27:42.311Z,1012.99
2023-03-20T00:28:42.301Z,1013.05
2023-03-20T00:29:42.267Z,1013.00
2023-03-20T00:30:42.236Z,1013.03
2023-03-20T00:31:42.327Z,1013.08
2023-03-20T00:32:42.202Z,1013.02
2023-03-20T00:33:42.169Z,1013.01
2023-03-20T00:34:42.178Z,1013.04
2023-03-20T00:35:42.230Z,1013.02
2023-03-20T00:36:42.092Z,1013.01
2023-03-20T00:37:42.070Z,1012.99
2023-03-20T00:38:42.058Z,1012.97
2023-03-20T00:39:42.037Z,1012.99
2023-03-20T00:40:42.025Z,1013.00
2023-03-20T00:41:41.972Z,1012.98
2023-03-20T00:42:41.942Z,1012.99
2023-03-20T00:43:41.924Z,1012.96
2023-03-20T00:44:42.652Z,1013.00
2023-03-20T00:45:41.875Z,1013.00
2023-03-20T00:46:41.936Z,1012.96
2023-03-20T00:47:41.838Z,1012.98
2023-03-20T00:48:41.807Z,1012.95
2023-03-20T00:49:41.781Z,1012.98
2023-03-20T00:50:41.755Z,1012.95
2023-03-20T00:51:41.733Z,1012.91
2023-03-20T00:52:41.706Z,1012.93
2023-03-20T00:53:41.679Z,1012.90
2023-03-20T00:54:41.658Z,1012.87
2023-03-20T00:55:41.643Z,1012.87
2023-03-20T00:56:41.631Z,1012.85
2023-03-20T00:57:41.591Z,1012.84
2023-03-20T00:58:41.554Z,1012.80
2023-03-20T00:59:41.534Z,1012.75
2023-03-20T01:00:41.685Z,1012.75
2023-03-20T01:01:41.542Z,1012.72
2023-03-20T01:02:41.455Z,1012.75
2023-03-20T01:03:41.450Z,1012.76
2023-03-20T01:04:41.411Z,1012.77
2023-03-20T01:05:41.387Z,1012.80
2023-03-20T01:06:41.355Z,1012.74
2023-03-20T01:07:41.333Z,1012.76
2023-03-20T01:08:41.307Z,1012.74
2023-03-20T01:09:41.295Z,1012.76
2023-03-20T01:10:41.266Z,1012.76
2023-03-20T01:11:41.237Z,1012.76
2023-03-20T01:12:41.230Z,1012.78
2023-03-20T01:13:41.185Z,1012.80
2023-03-20T01:14:41.155Z,1012.80
2023-03-20T01:15:41.137Z,1012.83
2023-03-20T01:16:41.286Z,1012.84
2023-03-20T01:17:41.088Z,1012.85
2023-03-20T01:18:41.065Z,1012.84
2023-03-20T01:19:41.037Z,1012.86
2023-03-20T01:20:41.008Z,1012.87
2023-03-20T01:21:40.992Z,1012.90
2023-03-20T01:22:40.967Z,1012.89
2023-03-20T01:23:40.943Z,1012.93
2023-03-20T01:24:40.907Z,1012.96
2023-03-20T01:25:40.897Z,1012.93
2023-03-20T01:26:40.880Z,1012.97
2023-03-20T01:27:40.838Z,1012.97
2023-03-20T01:28:40.834Z,1012.98
2023-03-20T01:29:40.809Z,1013.00
2023-03-20T01:30:40.759Z,1013.00
2023-03-20T01:31:40.779Z,1013.03
2023-03-20T01:32:40.760Z,1013.04
2023-03-20T01:33:40.697Z,1013.04
2023-03-20T01:34:40.676Z,1013.07
2023-03-20T01:35:40.702Z,1013.11
2023-03-20T01:36:40.613Z,1013.14
2023-03-20T01:37:40.590Z,1013.15
2023-03-20T01:38:40.569Z,1013.18
2023-03-20T01:39:40.547Z,1013.17
2023-03-20T01:40:40.521Z,1013.21
2023-03-20T01:41:40.499Z,1013.18
2023-03-20T01:42:40.465Z,1013.22
2023-03-20T01:43:40.448Z,1013.19
2023-03-20T01:44:40.438Z,1013.26
2023-03-20T01:45:40.548Z,1013.30
2023-03-20T01:46:40.372Z,1013.26
2023-03-20T01:47:40.348Z,1013.26
2023-03-20T01:48:40.316Z,1013.30
2023-03-20T01:49:40.299Z,1013.34
2023-03-20T01:50:40.271Z,1013.32
2023-03-20T01:51:40.272Z,1013.27
2023-03-20T01:52:40.223Z,1013.34
2023-03-20T01:53:40.204Z,1013.36
2023-03-20T01:54:40.174Z,1013.38
2023-03-20T01:55:40.160Z,1013.35
2023-03-20T01:56:40.123Z,1013.39
2023-03-20T01:57:40.101Z,1013.39
2023-03-20T01:58:40.078Z,1013.36
2023-03-20T01:59:40.070Z,1013.34
2023-03-20T02:00:40.050Z,1013.32
2023-03-20T02:01:40.006Z,1013.30
2023-03-20T02:02:39.983Z,1013.27
2023-03-20T02:03:39.953Z,1013.25
2023-03-20T02:04:39.955Z,1013.27
2023-03-20T02:05:39.913Z,1013.23
2023-03-20T02:06:39.876Z,1013.25
2023-03-20T02:07:39.860Z,1013.24
2023-03-20T02:08:39.824Z,1013.21
2023-03-20T02:09:39.804Z,1013.19
2023-03-20T02:10:39.773Z,1013.14
2023-03-20T02:11:39.754Z,1013.16
2023-03-20T02:12:39.724Z,1013.14
2023-03-20T02:13:39.702Z,1013.14
2023-03-20T02:14:39.673Z,1013.12
2023-03-20T02:15:39.656Z,1013.11
2023-03-20T02:16:39.669Z,1013.13
2023-03-20T02:17:39.603Z,1013.16
2023-03-20T02:18:39.573Z,1013.18
2023-03-20T02:19:39.551Z,1013.20
2023-03-20T02:20:39.523Z,1013.19
2023-03-20T02:21:39.501Z,1013.19
2023-03-20T02:22:39.473Z,1013.21
2023-03-20T02:23:39.452Z,1013.27
2023-03-20T02:24:39.426Z,1013.28
2023-03-20T02:25:39.404Z,1013.28
2023-03-20T02:26:39.374Z,1013.25
2023-03-20T02:27:39.357Z,1013.27
2023-03-20T02:28:39.336Z,1013.32
2023-03-20T02:29:39.313Z,1013.34
2023-03-20T02:30:39.338Z,1013.32
2023-03-20T02:31:39.263Z,1013.40
2023-03-20T02:32:39.400Z,1013.45
2023-03-20T02:33:39.211Z,1013.43
2023-03-20T02:34:39.182Z,1013.46
2023-03-20T02:35:39.247Z,1013.48
2023-03-20T02:36:39.127Z,1013.51
2023-03-20T02:37:39.100Z,1013.53
2023-03-20T02:38:39.083Z,1013.52
2023-03-20T02:39:39.069Z,1013.49
2023-03-20T02:40:39.029Z,1013.47
2023-03-20T02:41:39.023Z,1013.45
2023-03-20T02:42:38.976Z,1013.46
2023-03-20T02:43:38.954Z,1013.43
2023-03-20T02:44:38.925Z,1013.43
2023-03-20T02:45:38.901Z,1013.39
2023-03-20T02:46:38.966Z,1013.35
2023-03-20T02:47:38.855Z,1013.33
2023-03-20T02:48:38.844Z,1013.37
2023-03-20T02:49:38.798Z,1013.36
2023-03-20T02:50:38.777Z,1013.37
2023-03-20T02:51:38.779Z,1013.36
2023-03-20T02:52:38.725Z,1013.35
2023-03-20T02:53:38.706Z,1013.34
2023-03-20T02:54:38.678Z,1013.32
2023-03-20T02:55:38.652Z,1013.34
2023-03-20T02:56:38.619Z,1013.37
2023-03-20T02:57:38.601Z,1013.39
2023-03-20T02:58:38.572Z,1013.38
2023-03-20T02:59:38.548Z,1013.41
2023-03-20T03:00:38.552Z,1013.41
2023-03-20T03:01:38.541Z,1013.41
2023-03-20T03:02:38.529Z,1013.41
2023-03-20T03:03:38.446Z,1013.43
2023-03-20T03:04:38.448Z,1013.39
2023-03-20T03:05:38.402Z,1013.36
2023-03-20T03:06:38.374Z,1013.35
2023-03-20T03:07:38.355Z,1013.35
2023-03-20T03:08:38.324Z,1013.33
2023-03-20T03:09:38.296Z,1013.37
2023-03-20T03:10:38.274Z,1013.36
2023-03-20T03:11:38.258Z,1013.40
2023-03-20T03:12:38.223Z,1013.39
2023-03-20T03:13:38.197Z,1013.44
2023-03-20T03:14:38.174Z,1013.42
2023-03-20T03:15:38.549Z,1013.46
2023-03-20T03:16:38.128Z,1013.42
2023-03-20T03:17:38.103Z,1013.37
2023-03-20T03:18:38.091Z,1013.40
2023-03-20T03:19:38.060Z,1013.34
2023-03-20T03:20:38.090Z,1013.35
2023-03-20T03:21:37.999Z,1013.35
2023-03-20T03:22:37.972Z,1013.36
2023-03-20T03:23:37.950Z,1013.38
2023-03-20T03:24:41.245Z,1013.42
2023-03-20T03:25:38.220Z,1013.38
2023-03-20T03:26:37.870Z,1013.33
2023-03-20T03:27:37.867Z,1013.28
2023-03-20T03:28:37.829Z,1013.27
2023-03-20T03:29:37.796Z,1013.23
2023-03-20T03:30:37.774Z,1013.18
2023-03-20T03:31:37.767Z,1013.18
2023-03-20T03:32:37.772Z,1013.17
2023-03-20T03:33:37.696Z,1013.12
2023-03-20T03:34:37.674Z,1013.14
2023-03-20T03:35:38.335Z,1013.08
2023-03-20T03:36:37.648Z,1013.08
2023-03-20T03:37:37.594Z,1013.03
2023-03-20T03:38:37.576Z,1012.94
2023-03-20T03:39:37.545Z,1012.93
2023-03-20T03:40:37.521Z,1012.88
2023-03-20T03:41:37.500Z,1012.92
2023-03-20T03:42:37.473Z,1012.89
2023-03-20T03:43:37.447Z,1012.92
2023-03-20T03:44:37.423Z,1012.88
2023-03-20T03:45:37.730Z,1012.81
2023-03-20T03:46:37.420Z,1012.87
2023-03-20T03:47:37.344Z,1012.90
2023-03-20T03:48:37.321Z,1012.92
2023-03-20T03:49:37.293Z,1012.89
2023-03-20T03:50:37.268Z,1012.87
2023-03-20T03:51:37.256Z,1012.83
2023-03-20T03:52:37.243Z,1012.85
2023-03-20T03:53:37.202Z,1012.81
2023-03-20T03:54:37.174Z,1012.82
2023-03-20T03:55:37.441Z,1012.79
2023-03-20T03:56:37.123Z,1012.77
2023-03-20T03:57:37.296Z,1012.77
2023-03-20T03:58:37.090Z,1012.70
2023-03-20T03:59:37.040Z,1012.69
2023-03-20T04:00:37.028Z,1012.72
2023-03-20T04:01:37.018Z,1012.76
2023-03-20T04:02:36.975Z,1012.85
2023-03-20T04:03:36.961Z,1012.83
2023-03-20T04:04:37.013Z,1012.81
2023-03-20T04:05:37.261Z,1012.81
2023-03-20T04:06:36.883Z,1012.77
2023-03-20T04:07:36.851Z,1012.85
2023-03-20T04:08:36.861Z,1012.82
2023-03-20T04:09:36.808Z,1012.77
2023-03-20T04:10:36.773Z,1012.83
2023-03-20T04:11:36.745Z,1012.84
2023-03-20T04:12:36.724Z,1012.86
2023-03-20T04:13:36.695Z,1012.92
2023-03-20T04:14:36.673Z,1012.90
2023-03-20T04:15:37.007Z,1012.90
2023-03-20T04:16:36.719Z,1012.88
2023-03-20T04:17:36.607Z,1012.90
2023-03-20T04:18:36.572Z,1012.90
2023-03-20T04:19:36.545Z,1012.99
2023-03-20T04:20:36.525Z,1012.97
2023-03-20T04:21:36.504Z,1012.95
2023-03-20T04:22:36.480Z,1012.98
2023-03-20T04:23:36.444Z,1012.94
2023-03-20T04:24:36.446Z,1012.88
2023-03-20T04:25:36.638Z,1012.89
2023-03-20T04:26:36.376Z,1012.88
2023-03-20T04:27:36.360Z,1012.83
2023-03-20T04:28:36.341Z,1012.85
2023-03-20T04:29:39.092Z,1012.76
2023-03-20T04:30:36.277Z,1012.74
2023-03-20T04:31:36.301Z,1012.77
2023-03-20T04:32:36.262Z,1012.82
2023-03-20T04:33:36.219Z,1012.81
2023-03-20T04:34:36.175Z,1012.82
2023-03-20T04:35:36.770Z,1012.77
2023-03-20T04:36:36.123Z,1012.75
2023-03-20T04:37:36.092Z,1012.79
2023-03-20T04:38:36.087Z,1012.78
2023-03-20T04:39:36.042Z,1012.78
2023-03-20T04:40:36.045Z,1012.71
2023-03-20T04:41:36.020Z,1012.74
2023-03-20T04:42:35.972Z,1012.72
2023-03-20T04:43:35.968Z,1012.75
2023-03-20T04:44:35.930Z,1012.78
2023-03-20T04:45:36.170Z,1012.77
2023-03-20T04:46:35.879Z,1012.76
2023-03-20T04:47:35.845Z,1012.75
2023-03-20T04:48:35.830Z,1012.76
2023-03-20T04:49:35.803Z,1012.73
2023-03-20T04:50:35.790Z,1012.72
2023-03-20T04:51:35.747Z,1012.72
2023-03-20T04:52:35.720Z,1012.70
2023-03-20T04:53:35.689Z,1012.70
2023-03-20T04:54:35.668Z,1012.69
2023-03-20T04:55:35.958Z,1012.75
2023-03-20T04:56:35.638Z,1012.76
2023-03-20T04:57:35.621Z,1012.74
2023-03-20T04:58:35.571Z,1012.72
2023-03-20T04:59:35.549Z,1012.73
2023-03-20T05:00:35.529Z,1012.77
2023-03-20T05:01:35.487Z,1012.81
2023-03-20T05:02:35.472Z,1012.81
2023-03-20T05:03:35.451Z,1012.84
2023-03-20T05:04:35.417Z,1012.89
2023-03-20T05:05:35.662Z,1012.83
2023-03-20T05:06:35.374Z,1012.83
2023-03-20T05:07:35.338Z,1012.86
2023-03-20T05:08:35.336Z,1012.92
2023-03-20T05:09:35.288Z,1012.88
2023-03-20T05:10:35.264Z,1012.86
2023-03-20T05:11:35.241Z,1012.81
2023-03-20T05:12:35.233Z,1012.81
2023-03-20T05:13:35.185Z,1012.77
2023-03-20T05:14:35.168Z,1012.72
2023-03-20T05:15:35.466Z,1012.68
2023-03-20T05:16:35.178Z,1012.68
2023-03-20T05:17:35.089Z,1012.66
2023-03-20T05:18:35.065Z,1012.65
2023-03-20T05:19:35.037Z,1012.61
2023-03-20T05:20:35.014Z,1012.65
2023-03-20T05:21:34.981Z,1012.70
2023-03-20T05:22:34.963Z,1012.69
2023-03-20T05:23:34.933Z,1012.73
2023-03-20T05:24:34.908Z,1012.74
2023-03-20T05:25:35.060Z,1012.77
2023-03-20T05:26:34.876Z,1012.80
2023-03-20T05:27:34.832Z,1012.80
2023-03-20T05:28:34.848Z,1012.84
2023-03-20T05:29:34.803Z,1012.82
2023-03-20T05:30:34.829Z,1012.83
2023-03-20T05:31:34.735Z,1012.83
2023-03-20T05:32:34.729Z,1012.82
2023-03-20T05:33:37.593Z,1012.78
2023-03-20T05:34:34.658Z,1012.77
2023-03-20T05:35:35.132Z,1012.79
2023-03-20T05:36:34.606Z,1012.81
2023-03-20T05:37:34.577Z,1012.81
2023-03-20T05:38:34.555Z,1012.83
2023-03-20T05:39:34.527Z,1012.85
2023-03-20T05:40:34.508Z,1012.84
2023-03-20T05:41:34.502Z,1012.84
2023-03-20T05:42:34.459Z,1012.85
2023-03-20T05:43:34.430Z,1012.82
2023-03-20T05:44:34.422Z,1012.83
2023-03-20T05:45:34.739Z,1012.83
2023-03-20T05:46:34.426Z,1012.83
2023-03-20T05:47:34.323Z,1012.83
2023-03-20T05:48:34.307Z,1012.85
2023-03-20T05:49:34.278Z,1012.90
2023-03-20T05:50:34.254Z,1012.94
2023-03-20T05:51:34.226Z,1012.92
2023-03-20T05:52:34.214Z,1012.92
2023-03-20T05:53:34.174Z,1012.97
2023-03-20T05:54:34.150Z,1012.93
2023-03-20T05:55:34.601Z,1013.00
2023-03-20T05:56:34.150Z,1013.00
2023-03-20T05:57:34.073Z,1012.95
2023-03-20T05:58:34.052Z,1012.99
2023-03-20T05:59:34.021Z,1012.99
2023-03-20T06:00:34.024Z,1012.96
2023-03-20T06:01:33.974Z,1012.97
2023-03-20T06:02:34.070Z,1012.97
2023-03-20T06:03:33.997Z,1012.96
2023-03-20T06:04:33.902Z,1012.94
2023-03-20T06:05:34.148Z,1012.93
2023-03-20T06:06:33.851Z,1012.86
2023-03-20T06:07:33.824Z,1012.94
2023-03-20T06:08:33.824Z,1012.93
2023-03-20T06:09:33.774Z,1012.92
2023-03-20T06:10:33.759Z,1012.93
2023-03-20T06:11:36.890Z,1012.95
2023-03-20T06:12:33.708Z,1012.94
2023-03-20T06:13:33.693Z,1012.93
2023-03-20T06:14:33.647Z,1012.96
2023-03-20T06:15:33.960Z,1012.97
2023-03-20T06:16:33.616Z,1012.99
2023-03-20T06:17:33.568Z,1013.01
2023-03-20T06:18:33.552Z,1012.99
2023-03-20T06:19:33.519Z,1012.95
2023-03-20T06:20:33.503Z,1012.98
2023-03-20T06:21:33.466Z,1013.02
2023-03-20T06:22:33.448Z,1013.05
2023-03-20T06:23:33.414Z,1013.01
2023-03-20T06:24:33.405Z,1012.98
2023-03-20T06:25:33.477Z,1013.01
2023-03-20T06:26:33.346Z,1013.06
2023-03-20T06:27:33.314Z,1013.10
2023-03-20T06:28:33.316Z,1013.09
2023-03-20T06:29:33.266Z,1013.10
2023-03-20T06:30:33.250Z,1013.15
2023-03-20T06:31:33.254Z,1013.13
2023-03-20T06:32:33.250Z,1013.12
2023-03-20T06:33:33.170Z,1013.13
2023-03-20T06:34:33.160Z,1013.14
2023-03-20T06:35:33.176Z,1013.12
2023-03-20T06:36:33.088Z,1013.12
2023-03-20T06:37:33.063Z,1013.19
2023-03-20T06:38:33.051Z,1013.15
2023-03-20T06:39:33.035Z,1013.19
2023-03-20T06:40:32.987Z,1013.19
2023-03-20T06:41:34.898Z,1013.21
2023-03-20T06:42:32.943Z,1013.20
2023-03-20T06:43:32.923Z,1013.19
2023-03-20T06:44:32.913Z,1013.15
2023-03-20T06:45:32.931Z,1013.18
2023-03-20T06:46:32.871Z,1013.16
2023-03-20T06:47:32.809Z,1013.18
2023-03-20T06:48:32.804Z,1013.22
2023-03-20T06:49:32.755Z,1013.20
2023-03-20T06:50:32.741Z,1013.15
2023-03-20T06:51:32.708Z,1013.19
2023-03-20T06:52:32.690Z,1013.16
2023-03-20T06:53:32.660Z,1013.17
2023-03-20T06:54:32.634Z,1013.18
2023-03-20T06:55:32.602Z,1013.24
2023-03-20T06:56:32.587Z,1013.21
2023-03-20T06:57:32.555Z,1013.27
2023-03-20T06:58:32.546Z,1013.24
2023-03-20T06:59:32.501Z,1013.27
2023-03-20T07:00:32.480Z,1013.33
2023-03-20T07:01:32.502Z,1013.34
2023-03-20T07:02:32.437Z,1013.34
2023-03-20T07:03:32.405Z,1013.36
2023-03-20T07:04:32.453Z,1013.32
2023-03-20T07:05:32.355Z,1013.39
2023-03-20T07:06:32.338Z,1013.40
2023-03-20T07:07:32.299Z,1013.40
2023-03-20T07:08:34.725Z,1013.43
2023-03-20T07:09:32.253Z,1013.45
2023-03-20T07:10:32.243Z,1013.45
2023-03-20T07:11:32.220Z,1013.52
2023-03-20T07:12:32.181Z,1013.52
2023-03-20T07:13:32.158Z,1013.53
2023-03-20T07:14:32.138Z,1013.55
2023-03-20T07:15:32.113Z,1013.59
2023-03-20T07:16:32.185Z,1013.58
2023-03-20T07:17:32.057Z,1013.61
2023-03-20T07:18:32.040Z,1013.62
2023-03-20T07:19:32.010Z,1013.66
2023-03-20T07:20:31.999Z,1013.64
2023-03-20T07:21:31.957Z,1013.64
2023-03-20T07:22:31.935Z,1013.63
2023-03-20T07:23:31.895Z,1013.60
2023-03-20T07:24:31.882Z,1013.64
2023-03-20T07:25:41.789Z,1013.59
2023-03-20T07:26:31.835Z,1013.55
2023-03-20T07:27:31.804Z,1013.55
2023-03-20T07:28:31.783Z,1013.62
2023-03-20T07:29:31.780Z,1013.61
2023-03-20T07:30:31.724Z,1013.59
2023-03-20T07:31:31.731Z,1013.59
2023-03-20T07:32:31.673Z,1013.59
2023-03-20T07:33:31.651Z,1013.60
2023-03-20T07:34:31.628Z,1013.57
2023-03-20T07:35:31.663Z,1013.62
2023-03-20T07:36:31.595Z,1013.64
2023-03-20T07:37:31.555Z,1013.61
2023-03-20T07:38:31.519Z,1013.60
2023-03-20T07:39:31.490Z,1013.64
2023-03-20T07:40:31.472Z,1013.63
2023-03-20T07:41:31.445Z,1013.65
2023-03-20T07:42:31.416Z,1013.63
2023-03-20T07:43:31.393Z,1013.65
2023-03-20T07:44:31.378Z,1013.62
2023-03-20T07:45:31.370Z,1013.62
2023-03-20T07:46:31.310Z,1013.61
2023-03-20T07:47:31.353Z,1013.64
2023-03-20T07:48:31.265Z,1013.64
2023-03-20T07:49:31.241Z,1013.62
2023-03-20T07:50:31.213Z,1013.68
2023-03-20T07:51:31.189Z,1013.65
2023-03-20T07:52:31.185Z,1013.65
2023-03-20T07:53:31.149Z,1013.68
2023-03-20T07:54:31.107Z,1013.66
2023-03-20T07:55:31.100Z,1013.67
2023-03-20T07:56:31.056Z,1013.69
2023-03-20T07:57:31.064Z,1013.67
2023-03-20T07:58:31.005Z,1013.64
2023-03-20T07:59:30.989Z,1013.59
2023-03-20T08:00:30.965Z,1013.59
2023-03-20T08:01:30.944Z,1013.59
2023-03-20T08:02:30.964Z,1013.61
2023-03-20T08:03:31.030Z,1013.61
2023-03-20T08:04:30.855Z,1013.63
2023-03-20T08:05:30.836Z,1013.65
2023-03-20T08:06:30.801Z,1013.66
2023-03-20T08:07:30.783Z,1013.63
2023-03-20T08:08:30.788Z,1013.70
2023-03-20T08:09:30.730Z,1013.70
2023-03-20T08:10:30.701Z,1013.65
2023-03-20T08:11:33.113Z,1013.69
2023-03-20T08:12:30.652Z,1013.75
2023-03-20T08:13:30.629Z,1013.67
2023-03-20T08:14:30.608Z,1013.71
2023-03-20T08:15:30.585Z,1013.68
2023-03-20T08:16:30.590Z,1013.73
2023-03-20T08:17:30.614Z,1013.72
2023-03-20T08:18:30.510Z,1013.73
2023-03-20T08:19:30.485Z,1013.74
2023-03-20T08:20:30.627Z,1013.73
2023-03-20T08:21:30.432Z,1013.72
2023-03-20T08:22:30.408Z,1013.75
2023-03-20T08:23:30.386Z,1013.76
2023-03-20T08:24:30.396Z,1013.78
2023-03-20T08:25:30.341Z,1013.77
2023-03-20T08:26:30.312Z,1013.77
2023-03-20T08:27:30.286Z,1013.76
2023-03-20T08:28:46.173Z,1013.74
2023-03-20T08:29:30.237Z,1013.75
2023-03-20T08:30:30.268Z,1013.72
2023-03-20T08:31:30.182Z,1013.71
2023-03-20T08:32:30.151Z,1013.73
2023-03-20T08:33:30.133Z,1013.74
2023-03-20T08:34:30.111Z,1013.75
2023-03-20T08:35:45.508Z,1013.78
2023-03-20T08:36:30.051Z,1013.75
2023-03-20T08:37:30.030Z,1013.78
2023-03-20T08:38:29.997Z,1013.74
2023-03-20T08:39:29.979Z,1013.83
2023-03-20T08:40:29.968Z,1013.77
2023-03-20T08:41:29.923Z,1013.77
2023-03-20T08:42:29.898Z,1013.74
2023-03-20T08:43:29.939Z,1013.76
2023-03-20T08:44:29.855Z,1013.73
2023-03-20T08:45:29.824Z,1013.74
2023-03-20T08:46:29.851Z,1013.76
2023-03-20T08:47:29.775Z,1013.80
2023-03-20T08:48:29.746Z,1013.69
2023-03-20T08:49:29.734Z,1013.76
2023-03-20T08:50:29.700Z,1013.75
2023-03-20T08:51:29.673Z,1013.78
2023-03-20T08:52:29.645Z,1013.74
2023-03-20T08:53:29.632Z,1013.69
2023-03-20T08:54:29.592Z,1013.69
2023-03-20T08:55:29.570Z,1013.74
2023-03-20T08:56:29.566Z,1013.68
2023-03-20T08:57:29.764Z,1013.71
2023-03-20T08:58:29.500Z,1013.72
2023-03-20T08:59:29.476Z,1013.70
2023-03-20T09:00:29.440Z,1013.72
2023-03-20T09:01:46.010Z,1013.69
2023-03-20T09:02:29.621Z,1013.72
2023-03-20T09:03:29.367Z,1013.73
2023-03-20T09:04:29.355Z,1013.75
2023-03-20T09:05:29.318Z,1013.70
2023-03-20T09:06:29.299Z,1013.68
2023-03-20T09:07:29.265Z,1013.67
2023-03-20T09:08:29.232Z,1013.77
2023-03-20T09:09:29.291Z,1013.68
2023-03-20T09:10:29.197Z,1013.67
2023-03-20T09:11:29.176Z,1013.69
2023-03-20T09:12:29.163Z,1013.71
2023-03-20T09:13:29.133Z,1013.67
2023-03-20T09:14:29.094Z,1013.70
2023-03-20T09:15:29.067Z,1013.71
2023-03-20T09:16:29.114Z,1013.67
2023-03-20T09:17:29.022Z,1013.69
2023-03-20T09:18:28.989Z,1013.65
2023-03-20T09:19:30.625Z,1013.67
2023-03-20T09:20:28.939Z,1013.77
2023-03-20T09:21:28.926Z,1013.71
2023-03-20T09:22:28.895Z,1013.78
2023-03-20T09:23:28.907Z,1013.76
2023-03-20T09:24:28.835Z,1013.71
2023-03-20T09:25:28.814Z,1013.79
2023-03-20T09:26:28.783Z,1013.72
2023-03-20T09:27:28.803Z,1013.74
2023-03-20T09:28:28.759Z,1013.76
2023-03-20T09:29:28.738Z,1013.77
2023-03-20T09:30:28.683Z,1013.75
2023-03-20T09:31:28.724Z,1013.85
2023-03-20T09:32:28.640Z,1013.80
2023-03-20T09:33:28.631Z,1013.80
2023-03-20T09:34:28.586Z,1013.83
2023-03-20T09:35:28.561Z,1013.80
2023-03-20T09:36:28.539Z,1013.80
2023-03-20T09:37:28.520Z,1013.78
2023-03-20T09:38:28.484Z,1013.78
2023-03-20T09:39:28.465Z,1013.79
2023-03-20T09:40:28.431Z,1013.80
2023-03-20T09:41:28.566Z,1013.78
2023-03-20T09:42:28.411Z,1013.83
2023-03-20T09:43:28.362Z,1013.83
2023-03-20T09:44:28.360Z,1013.84
2023-03-20T09:45:28.316Z,1013.84
2023-03-20T09:46:28.348Z,1013.85
2023-03-20T09:47:28.273Z,1013.86
2023-03-20T09:48:28.244Z,1013.89
2023-03-20T09:49:28.225Z,1013.87
2023-03-20T09:50:28.190Z,1013.91
2023-03-20T09:51:28.170Z,1013.88
2023-03-20T09:52:28.144Z,1013.89
2023-03-20T09:53:28.111Z,1013.93
2023-03-20T09:54:28.090Z,1013.89
2023-03-20T09:55:28.092Z,1013.87
2023-03-20T09:56:28.034Z,1013.92
2023-03-20T09:57:28.052Z,1013.90
2023-03-20T09:58:27.980Z,1013.84
2023-03-20T09:59:27.965Z,1013.89
2023-03-20T10:00:27.959Z,1013.83
2023-03-20T10:01:27.992Z,1013.86
2023-03-20T10:02:27.890Z,1013.85
2023-03-20T10:03:27.870Z,1013.89
2023-03-20T10:04:27.952Z,1013.88
2023-03-20T10:05:27.825Z,1013.87
2023-03-20T10:06:27.789Z,1013.88
2023-03-20T10:07:27.765Z,1013.89
2023-03-20T10:08:27.734Z,1013.77
2023-03-20T10:09:27.716Z,1013.86
2023-03-20T10:10:27.682Z,1013.90
2023-03-20T10:11:27.664Z,1013.83
2023-03-20T10:12:27.634Z,1013.82
2023-03-20T10:13:27.619Z,1013.84
2023-03-20T10:14:27.599Z,1013.81
2023-03-20T10:15:27.565Z,1013.77
2023-03-20T10:16:27.678Z,1013.78
2023-03-20T10:17:27.517Z,1013.72
2023-03-20T10:18:27.495Z,1013.74
2023-03-20T10:19:27.468Z,1013.74
2023-03-20T10:20:27.447Z,1013.72
2023-03-20T10:21:27.419Z,1013.69
2023-03-20T10:22:27.419Z,1013.72
2023-03-20T10:23:27.367Z,1013.72
2023-03-20T10:24:27.345Z,1013.71
2023-03-20T10:25:27.329Z,1013.74
2023-03-20T10:26:27.290Z,1013.72
2023-03-20T10:27:28.454Z,1013.72
2023-03-20T10:28:27.245Z,1013.70
2023-03-20T10:29:27.219Z,1013.72
2023-03-20T10:30:27.199Z,1013.73
2023-03-20T10:31:27.218Z,1013.66
2023-03-20T10:32:27.156Z,1013.68
2023-03-20T10:33:27.305Z,1013.68
2023-03-20T10:34:27.098Z,1013.60
2023-03-20T10:35:27.063Z,1013.59
2023-03-20T10:36:27.052Z,1013.59
2023-03-20T10:37:27.030Z,1013.62
2023-03-20T10:38:26.995Z,1013.60
2023-03-20T10:39:26.977Z,1013.55
2023-03-20T10:40:26.947Z,1013.58
2023-03-20T10:41:26.918Z,1013.55
2023-03-20T10:42:26.890Z,1013.61
2023-03-20T10:43:26.866Z,1013.56
2023-03-20T10:44:26.837Z,1013.57
2023-03-20T10:45:26.821Z,1013.62
2023-03-20T10:46:26.849Z,1013.55
2023-03-20T10:47:26.848Z,1013.52
2023-03-20T10:48:26.758Z,1013.57
2023-03-20T10:49:26.714Z,1013.48
2023-03-20T10:50:26.689Z,1013.57
2023-03-20T10:51:26.673Z,1013.44
2023-03-20T10:52:26.637Z,1013.55
2023-03-20T10:53:26.631Z,1013.49
2023-03-20T10:54:26.590Z,1013.54
2023-03-20T10:55:26.573Z,1013.51
2023-03-20T10:56:26.541Z,1013.44
2023-03-20T10:57:26.586Z,1013.48
2023-03-20T10:58:26.492Z,1013.45
2023-03-20T10:59:26.501Z,1013.43
2023-03-20T11:00:26.461Z,1013.45
2023-03-20T11:01:26.486Z,1013.46
2023-03-20T11:02:26.390Z,1013.46
2023-03-20T11:03:26.382Z,1013.52
2023-03-20T11:04:26.453Z,1013.50
2023-03-20T11:05:26.319Z,1013.49
2023-03-20T11:06:26.296Z,1013.42
2023-03-20T11:07:26.273Z,1013.45
2023-03-20T11:08:26.247Z,1013.41
2023-03-20T11:09:26.239Z,1013.44
2023-03-20T11:10:26.193Z,1013.38
2023-03-20T11:11:26.200Z,1013.40
2023-03-20T11:12:26.156Z,1013.39
2023-03-20T11:13:26.141Z,1013.37
2023-03-20T11:14:26.100Z,1013.35
2023-03-20T11:15:26.080Z,1013.41
2023-03-20T11:16:26.146Z,1013.34
2023-03-20T11:17:26.029Z,1013.36
2023-03-20T11:18:26.006Z,1013.36
2023-03-20T11:19:25.977Z,1013.34
2023-03-20T11:20:25.967Z,1013.31
2023-03-20T11:21:25.952Z,1013.32
2023-03-20T11:22:25.913Z,1013.35
2023-03-20T11:23:25.880Z,1013.33
2023-03-20T11:24:25.889Z,1013.37
2023-03-20T11:25:25.836Z,1013.37
2023-03-20T11:26:25.806Z,1013.26
2023-03-20T11:27:25.783Z,1013.30
2023-03-20T11:28:25.757Z,1013.26
2023-03-20T11:29:25.735Z,1013.31
2023-03-20T11:30:25.703Z,1013.26
2023-03-20T11:31:25.756Z,1013.24
2023-03-20T11:32:25.651Z,1013.29
2023-03-20T11:33:25.639Z,1013.17
2023-03-20T11:34:25.602Z,1013.27
2023-03-20T11:35:25.587Z,1013.23
2023-03-20T11:36:27.943Z,1013.23
2023-03-20T11:37:25.558Z,1013.19
2023-03-20T11:38:25.504Z,1013.18
2023-03-20T11:39:25.481Z,1013.20
2023-03-20T11:40:25.458Z,1013.22
2023-03-20T11:41:25.436Z,1013.21
2023-03-20T11:42:25.410Z,1013.17
2023-03-20T11:43:25.382Z,1013.13
2023-03-20T11:44:25.357Z,1013.18
2023-03-20T11:45:25.331Z,1013.15
2023-03-20T11:46:25.454Z,1013.13
2023-03-20T11:47:25.281Z,1013.11
2023-03-20T11:48:25.256Z,1013.10
2023-03-20T11:49:25.248Z,1013.14
2023-03-20T11:50:25.204Z,1013.17
2023-03-20T11:51:25.180Z,1013.11
2023-03-20T11:52:25.174Z,1013.20
2023-03-20T11:53:25.130Z,1013.18
2023-03-20T11:54:25.130Z,1013.19
2023-03-20T11:55:25.088Z,1013.26
2023-03-20T11:56:25.068Z,1013.23
2023-03-20T11:57:25.030Z,1013.23
2023-03-20T11:58:25.011Z,1013.27
2023-03-20T11:59:24.981Z,1013.23
2023-03-20T12:00:24.967Z,1013.31
2023-03-20T12:01:24.934Z,1013.24
2023-03-20T12:02:24.972Z,1013.29
2023-03-20T12:03:24.896Z,1013.26
2023-03-20T12:04:24.866Z,1013.23
2023-03-20T12:05:24.846Z,1013.25